sensor_id;sensor_type;location;lat;lon;timestamp;P1;durP1;ratioP1;P2;durP2;ratioP2
50932;SDS011;36921;49.006;9.292;2024-02-23T00:01:31;1.23;;;0.10;;
50932;SDS011;36921;49.006;9.292;2024-02-23T00:03:56;1.75;;;0.20;;
50932;SDS011;36921;49.006;9.292;2024-02-23T00:06:22;0.32;;;0.05;;
50932;SDS011;36921;49.006;9.292;2024-02-23T00:08:53;1.10;;;0.20;;
50932;SDS011;36921;49.006;9.292;2024-02-23T00:11:19;0.52;;;0.30;;
50932;SDS011;36921;49.006;9.292;2024-02-23T00:13:46;2.17;;;0.40;;
50932;SDS011;36921;49.006;9.292;2024-02-23T00:16:11;1.00;;;0.30;;
50932;SDS011;36921;49.006;9.292;2024-02-23T00:18:37;1.10;;;0.20;;
50932;SDS011;36921;49.006;9.292;2024-02-23T00:21:03;1.55;;;0.30;;
50932;SDS011;36921;49.006;9.292;2024-02-23T00:23:28;0.88;;;0.65;;
50932;SDS011;36921;49.006;9.292;2024-02-23T00:25:54;1.08;;;0.10;;
50932;SDS011;36921;49.006;9.292;2024-02-23T00:28:19;1.58;;;0.10;;
50932;SDS011;36921;49.006;9.292;2024-02-23T00:30:44;4.57;;;0.30;;
50932;SDS011;36921;49.006;9.292;2024-02-23T00:33:10;3.47;;;0.28;;
50932;SDS011;36921;49.006;9.292;2024-02-23T00:35:35;2.78;;;0.38;;
50932;SDS011;36921;49.006;9.292;2024-02-23T00:38:00;2.85;;;0.73;;
50932;SDS011;36921;49.006;9.292;2024-02-23T00:40:26;0.52;;;0.13;;
50932;SDS011;36921;49.006;9.292;2024-02-23T00:42:51;0.60;;;0.08;;
50932;SDS011;36921;49.006;9.292;2024-02-23T00:45:16;4.25;;;0.60;;
50932;SDS011;36921;49.006;9.292;2024-02-23T00:47:42;1.35;;;0.22;;
50932;SDS011;36921;49.006;9.292;2024-02-23T00:50:08;3.92;;;0.45;;
50932;SDS011;36921;49.006;9.292;2024-02-23T00:52:34;4.47;;;0.32;;
50932;SDS011;36921;49.006;9.292;2024-02-23T00:54:59;3.45;;;0.20;;
50932;SDS011;36921;49.006;9.292;2024-02-23T00:57:25;3.38;;;0.20;;
50932;SDS011;36921;49.006;9.292;2024-02-23T01:02:20;1.48;;;0.20;;
50932;SDS011;36921;49.006;9.292;2024-02-23T01:04:45;3.20;;;0.30;;
50932;SDS011;36921;49.006;9.292;2024-02-23T01:07:11;5.35;;;0.50;;
50932;SDS011;36921;49.006;9.292;2024-02-23T01:09:36;0.40;;;0.20;;
50932;SDS011;36921;49.006;9.292;2024-02-23T01:12:01;2.35;;;0.20;;
50932;SDS011;36921;49.006;9.292;2024-02-23T01:14:27;4.70;;;0.40;;
50932;SDS011;36921;49.006;9.292;2024-02-23T01:16:52;3.80;;;0.30;;
50932;SDS011;36921;49.006;9.292;2024-02-23T01:19:17;1.63;;;0.20;;
50932;SDS011;36921;49.006;9.292;2024-02-23T01:21:43;2.95;;;0.30;;
50932;SDS011;36921;49.006;9.292;2024-02-23T01:24:09;1.92;;;0.30;;
50932;SDS011;36921;49.006;9.292;2024-02-23T01:26:34;2.70;;;0.40;;
50932;SDS011;36921;49.006;9.292;2024-02-23T01:28:59;1.15;;;0.25;;
50932;SDS011;36921;49.006;9.292;2024-02-23T01:31:25;5.03;;;0.50;;
50932;SDS011;36921;49.006;9.292;2024-02-23T01:33:50;1.17;;;0.50;;
50932;SDS011;36921;49.006;9.292;2024-02-23T01:36:16;2.00;;;0.20;;
50932;SDS011;36921;49.006;9.292;2024-02-23T01:38:42;2.47;;;0.30;;
50932;SDS011;36921;49.006;9.292;2024-02-23T01:41:08;0.65;;;0.13;;
50932;SDS011;36921;49.006;9.292;2024-02-23T01:43:33;2.28;;;0.38;;
50932;SDS011;36921;49.006;9.292;2024-02-23T01:45:59;3.70;;;0.32;;
50932;SDS011;36921;49.006;9.292;2024-02-23T01:48:24;1.70;;;0.17;;
50932;SDS011;36921;49.006;9.292;2024-02-23T01:50:50;6.13;;;0.40;;
50932;SDS011;36921;49.006;9.292;2024-02-23T01:53:16;4.55;;;0.30;;
50932;SDS011;36921;49.006;9.292;2024-02-23T01:55:44;4.10;;;0.32;;
50932;SDS011;36921;49.006;9.292;2024-02-23T01:58:10;4.28;;;0.90;;
50932;SDS011;36921;49.006;9.292;2024-02-23T02:00:36;3.47;;;0.43;;
50932;SDS011;36921;49.006;9.292;2024-02-23T02:03:02;1.73;;;0.30;;
50932;SDS011;36921;49.006;9.292;2024-02-23T02:05:28;5.93;;;0.50;;
50932;SDS011;36921;49.006;9.292;2024-02-23T02:13:10;2.63;;;0.28;;
50932;SDS011;36921;49.006;9.292;2024-02-23T02:15:35;1.55;;;0.35;;
50932;SDS011;36921;49.006;9.292;2024-02-23T02:18:01;3.58;;;0.30;;
50932;SDS011;36921;49.006;9.292;2024-02-23T02:20:26;2.85;;;0.30;;
50932;SDS011;36921;49.006;9.292;2024-02-23T02:22:53;2.40;;;0.30;;
50932;SDS011;36921;49.006;9.292;2024-02-23T02:25:18;3.38;;;0.43;;
50932;SDS011;36921;49.006;9.292;2024-02-23T02:27:44;1.42;;;0.20;;
50932;SDS011;36921;49.006;9.292;2024-02-23T02:30:11;0.80;;;0.20;;
50932;SDS011;36921;49.006;9.292;2024-02-23T02:32:37;0.25;;;0.22;;
50932;SDS011;36921;49.006;9.292;2024-02-23T02:35:02;3.05;;;0.40;;
50932;SDS011;36921;49.006;9.292;2024-02-23T02:37:28;0.47;;;0.20;;
50932;SDS011;36921;49.006;9.292;2024-02-23T02:39:54;2.28;;;0.20;;
50932;SDS011;36921;49.006;9.292;2024-02-23T02:42:19;1.10;;;0.20;;
50932;SDS011;36921;49.006;9.292;2024-02-23T02:44:44;0.93;;;0.20;;
50932;SDS011;36921;49.006;9.292;2024-02-23T02:47:10;2.85;;;0.45;;
50932;SDS011;36921;49.006;9.292;2024-02-23T02:49:35;1.35;;;0.10;;
50932;SDS011;36921;49.006;9.292;2024-02-23T02:52:00;0.80;;;0.10;;
50932;SDS011;36921;49.006;9.292;2024-02-23T02:54:26;1.80;;;0.30;;
50932;SDS011;36921;49.006;9.292;2024-02-23T02:56:53;5.60;;;0.30;;
50932;SDS011;36921;49.006;9.292;2024-02-23T02:59:19;1.70;;;0.20;;
50932;SDS011;36921;49.006;9.292;2024-02-23T03:01:45;3.60;;;0.40;;
50932;SDS011;36921;49.006;9.292;2024-02-23T03:04:12;4.90;;;0.20;;
50932;SDS011;36921;49.006;9.292;2024-02-23T03:06:37;0.98;;;0.25;;
50932;SDS011;36921;49.006;9.292;2024-02-23T03:09:03;0.75;;;0.13;;
50932;SDS011;36921;49.006;9.292;2024-02-23T03:11:28;2.33;;;0.35;;
50932;SDS011;36921;49.006;9.292;2024-02-23T03:13:54;1.00;;;0.40;;
50932;SDS011;36921;49.006;9.292;2024-02-23T03:16:20;0.52;;;0.20;;
50932;SDS011;36921;49.006;9.292;2024-02-23T03:18:48;2.97;;;0.30;;
50932;SDS011;36921;49.006;9.292;2024-02-23T03:21:14;2.83;;;0.17;;
50932;SDS011;36921;49.006;9.292;2024-02-23T03:23:40;0.75;;;0.20;;
50932;SDS011;36921;49.006;9.292;2024-02-23T03:26:09;0.43;;;0.10;;
50932;SDS011;36921;49.006;9.292;2024-02-23T03:28:34;0.40;;;0.20;;
50932;SDS011;36921;49.006;9.292;2024-02-23T03:31:00;0.82;;;0.10;;
50932;SDS011;36921;49.006;9.292;2024-02-23T03:33:25;2.78;;;0.25;;
50932;SDS011;36921;49.006;9.292;2024-02-23T03:35:51;0.25;;;0.20;;
50932;SDS011;36921;49.006;9.292;2024-02-23T03:38:17;2.08;;;0.30;;
50932;SDS011;36921;49.006;9.292;2024-02-23T03:40:42;0.57;;;0.25;;
50932;SDS011;36921;49.006;9.292;2024-02-23T03:43:07;0.65;;;0.17;;
50932;SDS011;36921;49.006;9.292;2024-02-23T03:45:33;3.03;;;0.28;;
50932;SDS011;36921;49.006;9.292;2024-02-23T03:47:58;1.80;;;0.43;;
50932;SDS011;36921;49.006;9.292;2024-02-23T03:50:24;1.35;;;0.20;;
50932;SDS011;36921;49.006;9.292;2024-02-23T03:52:50;0.70;;;0.30;;
50932;SDS011;36921;49.006;9.292;2024-02-23T03:55:15;1.23;;;0.35;;
50932;SDS011;36921;49.006;9.292;2024-02-23T03:57:41;0.60;;;0.40;;
50932;SDS011;36921;49.006;9.292;2024-02-23T04:00:06;1.45;;;0.50;;
50932;SDS011;36921;49.006;9.292;2024-02-23T04:02:32;5.72;;;0.32;;
50932;SDS011;36921;49.006;9.292;2024-02-23T04:04:58;0.25;;;0.17;;
50932;SDS011;36921;49.006;9.292;2024-02-23T04:07:24;1.02;;;0.20;;
50932;SDS011;36921;49.006;9.292;2024-02-23T04:09:49;3.75;;;0.40;;
50932;SDS011;36921;49.006;9.292;2024-02-23T04:12:18;1.00;;;0.10;;
50932;SDS011;36921;49.006;9.292;2024-02-23T04:14:44;0.38;;;0.10;;
50932;SDS011;36921;49.006;9.292;2024-02-23T04:17:10;0.80;;;0.10;;
50932;SDS011;36921;49.006;9.292;2024-02-23T04:19:37;1.30;;;0.17;;
50932;SDS011;36921;49.006;9.292;2024-02-23T04:22:03;1.38;;;0.20;;
50932;SDS011;36921;49.006;9.292;2024-02-23T04:24:31;2.72;;;0.25;;
50932;SDS011;36921;49.006;9.292;2024-02-23T04:26:56;1.23;;;0.20;;
50932;SDS011;36921;49.006;9.292;2024-02-23T04:29:21;2.80;;;0.30;;
50932;SDS011;36921;49.006;9.292;2024-02-23T04:31:47;1.42;;;0.20;;
50932;SDS011;36921;49.006;9.292;2024-02-23T04:34:14;1.25;;;0.20;;
50932;SDS011;36921;49.006;9.292;2024-02-23T04:36:40;5.03;;;0.30;;
50932;SDS011;36921;49.006;9.292;2024-02-23T04:39:05;1.02;;;0.22;;
50932;SDS011;36921;49.006;9.292;2024-02-23T04:44:52;0.95;;;0.22;;
50932;SDS011;36921;49.006;9.292;2024-02-23T04:47:20;4.15;;;0.20;;
50932;SDS011;36921;49.006;9.292;2024-02-23T04:49:45;2.58;;;0.30;;
50932;SDS011;36921;49.006;9.292;2024-02-23T04:52:11;0.65;;;0.13;;
50932;SDS011;36921;49.006;9.292;2024-02-23T04:54:36;2.40;;;0.20;;
50932;SDS011;36921;49.006;9.292;2024-02-23T04:57:01;0.20;;;0.20;;
50932;SDS011;36921;49.006;9.292;2024-02-23T04:59:27;1.92;;;0.28;;
50932;SDS011;36921;49.006;9.292;2024-02-23T05:01:53;1.77;;;0.20;;
50932;SDS011;36921;49.006;9.292;2024-02-23T05:04:19;0.45;;;0.20;;
50932;SDS011;36921;49.006;9.292;2024-02-23T05:06:44;2.47;;;0.25;;
50932;SDS011;36921;49.006;9.292;2024-02-23T05:09:10;0.98;;;0.20;;
50932;SDS011;36921;49.006;9.292;2024-02-23T05:11:36;2.92;;;0.40;;
50932;SDS011;36921;49.006;9.292;2024-02-23T05:14:02;2.25;;;0.22;;
50932;SDS011;36921;49.006;9.292;2024-02-23T05:16:28;4.88;;;0.50;;
50932;SDS011;36921;49.006;9.292;2024-02-23T05:18:53;1.27;;;0.55;;
50932;SDS011;36921;49.006;9.292;2024-02-23T05:21:31;1.52;;;0.30;;
50932;SDS011;36921;49.006;9.292;2024-02-23T05:23:56;2.83;;;0.40;;
50932;SDS011;36921;49.006;9.292;2024-02-23T05:26:22;1.88;;;0.45;;
50932;SDS011;36921;49.006;9.292;2024-02-23T05:28:48;1.17;;;0.40;;
50932;SDS011;36921;49.006;9.292;2024-02-23T05:34:19;1.90;;;0.25;;
50932;SDS011;36921;49.006;9.292;2024-02-23T05:36:45;4.00;;;0.30;;
50932;SDS011;36921;49.006;9.292;2024-02-23T05:39:12;2.20;;;0.20;;
50932;SDS011;36921;49.006;9.292;2024-02-23T05:41:40;5.13;;;0.20;;
50932;SDS011;36921;49.006;9.292;2024-02-23T05:44:06;1.08;;;0.20;;
50932;SDS011;36921;49.006;9.292;2024-02-23T05:46:32;5.10;;;0.40;;
50932;SDS011;36921;49.006;9.292;2024-02-23T05:49:00;0.98;;;0.30;;
50932;SDS011;36921;49.006;9.292;2024-02-23T05:51:25;4.53;;;0.45;;
50932;SDS011;36921;49.006;9.292;2024-02-23T05:53:54;2.03;;;0.40;;
50932;SDS011;36921;49.006;9.292;2024-02-23T05:56:20;3.65;;;0.38;;
50932;SDS011;36921;49.006;9.292;2024-02-23T05:58:46;4.88;;;0.85;;
50932;SDS011;36921;49.006;9.292;2024-02-23T06:01:12;4.22;;;0.60;;
50932;SDS011;36921;49.006;9.292;2024-02-23T06:03:40;3.10;;;0.60;;
50932;SDS011;36921;49.006;9.292;2024-02-23T06:06:08;1.08;;;0.38;;
50932;SDS011;36921;49.006;9.292;2024-02-23T06:08:34;2.53;;;0.52;;
50932;SDS011;36921;49.006;9.292;2024-02-23T06:11:00;2.20;;;0.60;;
50932;SDS011;36921;49.006;9.292;2024-02-23T06:13:25;1.67;;;0.45;;
50932;SDS011;36921;49.006;9.292;2024-02-23T06:15:51;10.38;;;3.20;;
50932;SDS011;36921;49.006;9.292;2024-02-23T06:18:16;19.63;;;6.10;;
50932;SDS011;36921;49.006;9.292;2024-02-23T06:20:41;11.77;;;5.43;;
50932;SDS011;36921;49.006;9.292;2024-02-23T06:23:07;8.25;;;3.00;;
50932;SDS011;36921;49.006;9.292;2024-02-23T06:25:32;4.93;;;1.70;;
50932;SDS011;36921;49.006;9.292;2024-02-23T06:27:57;4.25;;;1.23;;
50932;SDS011;36921;49.006;9.292;2024-02-23T06:30:23;3.42;;;1.40;;
50932;SDS011;36921;49.006;9.292;2024-02-23T06:32:48;7.43;;;1.52;;
50932;SDS011;36921;49.006;9.292;2024-02-23T06:35:14;8.30;;;2.38;;
50932;SDS011;36921;49.006;9.292;2024-02-23T06:37:39;6.40;;;2.55;;
50932;SDS011;36921;49.006;9.292;2024-02-23T06:40:05;5.32;;;1.35;;
50932;SDS011;36921;49.006;9.292;2024-02-23T06:42:32;4.00;;;1.27;;
50932;SDS011;36921;49.006;9.292;2024-02-23T06:44:58;3.05;;;1.17;;
50932;SDS011;36921;49.006;9.292;2024-02-23T06:47:23;5.47;;;1.50;;
50932;SDS011;36921;49.006;9.292;2024-02-23T06:49:49;5.68;;;1.60;;
50932;SDS011;36921;49.006;9.292;2024-02-23T06:52:15;1.58;;;0.65;;
50932;SDS011;36921;49.006;9.292;2024-02-23T06:54:41;1.92;;;0.55;;
50932;SDS011;36921;49.006;9.292;2024-02-23T06:57:06;4.93;;;0.80;;
50932;SDS011;36921;49.006;9.292;2024-02-23T06:59:32;2.17;;;0.80;;
50932;SDS011;36921;49.006;9.292;2024-02-23T07:01:58;1.55;;;0.50;;
50932;SDS011;36921;49.006;9.292;2024-02-23T07:04:23;2.58;;;0.70;;
50932;SDS011;36921;49.006;9.292;2024-02-23T07:06:50;1.65;;;0.25;;
50932;SDS011;36921;49.006;9.292;2024-02-23T07:09:15;3.50;;;0.63;;
50932;SDS011;36921;49.006;9.292;2024-02-23T07:11:41;2.25;;;0.55;;
50932;SDS011;36921;49.006;9.292;2024-02-23T07:14:08;3.20;;;0.50;;
50932;SDS011;36921;49.006;9.292;2024-02-23T07:16:37;2.35;;;0.57;;
50932;SDS011;36921;49.006;9.292;2024-02-23T07:19:04;1.38;;;0.50;;
50932;SDS011;36921;49.006;9.292;2024-02-23T07:21:29;3.00;;;0.45;;
50932;SDS011;36921;49.006;9.292;2024-02-23T07:23:55;2.58;;;0.50;;
50932;SDS011;36921;49.006;9.292;2024-02-23T07:26:21;3.13;;;0.50;;
50932;SDS011;36921;49.006;9.292;2024-02-23T07:28:47;1.67;;;0.40;;
50932;SDS011;36921;49.006;9.292;2024-02-23T07:31:14;8.45;;;0.60;;
50932;SDS011;36921;49.006;9.292;2024-02-23T07:33:40;7.07;;;0.73;;
50932;SDS011;36921;49.006;9.292;2024-02-23T07:36:05;2.72;;;0.88;;
50932;SDS011;36921;49.006;9.292;2024-02-23T07:38:31;4.70;;;1.02;;
50932;SDS011;36921;49.006;9.292;2024-02-23T07:40:57;5.03;;;0.63;;
50932;SDS011;36921;49.006;9.292;2024-02-23T07:43:23;3.55;;;0.63;;
50932;SDS011;36921;49.006;9.292;2024-02-23T07:45:49;4.07;;;0.52;;
50932;SDS011;36921;49.006;9.292;2024-02-23T07:48:15;4.07;;;1.00;;
50932;SDS011;36921;49.006;9.292;2024-02-23T07:50:40;5.00;;;0.90;;
50932;SDS011;36921;49.006;9.292;2024-02-23T07:53:05;4.28;;;0.70;;
50932;SDS011;36921;49.006;9.292;2024-02-23T07:55:31;1.92;;;0.60;;
50932;SDS011;36921;49.006;9.292;2024-02-23T07:57:56;4.82;;;0.77;;
50932;SDS011;36921;49.006;9.292;2024-02-23T08:00:26;3.65;;;0.90;;
50932;SDS011;36921;49.006;9.292;2024-02-23T08:02:52;2.33;;;0.80;;
50932;SDS011;36921;49.006;9.292;2024-02-23T08:05:22;1.65;;;0.55;;
50932;SDS011;36921;49.006;9.292;2024-02-23T08:07:48;4.55;;;0.55;;
50932;SDS011;36921;49.006;9.292;2024-02-23T08:10:14;2.42;;;0.75;;
50932;SDS011;36921;49.006;9.292;2024-02-23T08:12:39;1.92;;;0.70;;
50932;SDS011;36921;49.006;9.292;2024-02-23T08:15:05;4.93;;;1.40;;
50932;SDS011;36921;49.006;9.292;2024-02-23T08:17:31;4.28;;;1.30;;
50932;SDS011;36921;49.006;9.292;2024-02-23T08:19:57;5.78;;;1.75;;
50932;SDS011;36921;49.006;9.292;2024-02-23T08:22:22;7.10;;;1.75;;
50932;SDS011;36921;49.006;9.292;2024-02-23T08:24:48;3.50;;;0.82;;
50932;SDS011;36921;49.006;9.292;2024-02-23T08:27:14;4.68;;;0.98;;
50932;SDS011;36921;49.006;9.292;2024-02-23T08:29:40;6.93;;;1.05;;
50932;SDS011;36921;49.006;9.292;2024-02-23T08:32:06;5.30;;;0.90;;
50932;SDS011;36921;49.006;9.292;2024-02-23T08:34:32;3.78;;;1.10;;
50932;SDS011;36921;49.006;9.292;2024-02-23T08:39:35;2.20;;;1.00;;
50932;SDS011;36921;49.006;9.292;2024-02-23T08:42:02;6.57;;;1.15;;
50932;SDS011;36921;49.006;9.292;2024-02-23T08:44:28;5.80;;;1.30;;
50932;SDS011;36921;49.006;9.292;2024-02-23T08:46:53;2.00;;;0.90;;
50932;SDS011;36921;49.006;9.292;2024-02-23T08:49:19;4.20;;;1.10;;
50932;SDS011;36921;49.006;9.292;2024-02-23T08:51:44;3.83;;;0.85;;
50932;SDS011;36921;49.006;9.292;2024-02-23T08:54:10;1.95;;;0.63;;
50932;SDS011;36921;49.006;9.292;2024-02-23T08:56:38;6.13;;;0.93;;
50932;SDS011;36921;49.006;9.292;2024-02-23T08:59:08;4.43;;;0.60;;
50932;SDS011;36921;49.006;9.292;2024-02-23T09:01:37;2.97;;;0.47;;
50932;SDS011;36921;49.006;9.292;2024-02-23T09:04:02;2.53;;;1.00;;
50932;SDS011;36921;49.006;9.292;2024-02-23T09:06:27;2.80;;;0.40;;
50932;SDS011;36921;49.006;9.292;2024-02-23T09:08:53;1.48;;;0.47;;
50932;SDS011;36921;49.006;9.292;2024-02-23T09:11:18;2.95;;;0.40;;
50932;SDS011;36921;49.006;9.292;2024-02-23T09:13:44;3.60;;;0.70;;
50932;SDS011;36921;49.006;9.292;2024-02-23T09:16:09;1.55;;;0.68;;
50932;SDS011;36921;49.006;9.292;2024-02-23T09:18:35;2.10;;;0.63;;
50932;SDS011;36921;49.006;9.292;2024-02-23T09:21:00;3.25;;;0.52;;
50932;SDS011;36921;49.006;9.292;2024-02-23T09:23:26;1.95;;;0.57;;
50932;SDS011;36921;49.006;9.292;2024-02-23T09:25:51;2.83;;;0.70;;
50932;SDS011;36921;49.006;9.292;2024-02-23T09:28:17;4.25;;;0.85;;
50932;SDS011;36921;49.006;9.292;2024-02-23T09:30:42;5.85;;;0.60;;
50932;SDS011;36921;49.006;9.292;2024-02-23T09:33:08;3.00;;;0.70;;
50932;SDS011;36921;49.006;9.292;2024-02-23T09:35:33;2.15;;;0.57;;
50932;SDS011;36921;49.006;9.292;2024-02-23T09:37:58;5.18;;;0.90;;
50932;SDS011;36921;49.006;9.292;2024-02-23T09:40:24;2.78;;;0.73;;
50932;SDS011;36921;49.006;9.292;2024-02-23T09:42:55;1.10;;;0.50;;
50932;SDS011;36921;49.006;9.292;2024-02-23T09:45:22;2.05;;;0.57;;
50932;SDS011;36921;49.006;9.292;2024-02-23T09:47:49;3.20;;;0.90;;
50932;SDS011;36921;49.006;9.292;2024-02-23T09:50:16;2.60;;;0.50;;
50932;SDS011;36921;49.006;9.292;2024-02-23T09:52:44;2.20;;;0.70;;
50932;SDS011;36921;49.006;9.292;2024-02-23T09:55:11;0.60;;;0.35;;
50932;SDS011;36921;49.006;9.292;2024-02-23T09:57:36;2.08;;;0.57;;
50932;SDS011;36921;49.006;9.292;2024-02-23T10:00:02;2.42;;;0.70;;
50932;SDS011;36921;49.006;9.292;2024-02-23T10:04:57;1.73;;;0.30;;
50932;SDS011;36921;49.006;9.292;2024-02-23T10:07:24;1.85;;;0.50;;
50932;SDS011;36921;49.006;9.292;2024-02-23T10:09:50;5.13;;;1.17;;
50932;SDS011;36921;49.006;9.292;2024-02-23T10:12:16;2.35;;;0.47;;
50932;SDS011;36921;49.006;9.292;2024-02-23T10:14:41;2.53;;;0.43;;
50932;SDS011;36921;49.006;9.292;2024-02-23T10:17:07;1.73;;;0.60;;
50932;SDS011;36921;49.006;9.292;2024-02-23T10:19:34;2.53;;;0.60;;
50932;SDS011;36921;49.006;9.292;2024-02-23T10:22:00;3.15;;;0.70;;
50932;SDS011;36921;49.006;9.292;2024-02-23T10:24:26;3.70;;;0.80;;
50932;SDS011;36921;49.006;9.292;2024-02-23T10:26:51;2.67;;;0.40;;
50932;SDS011;36921;49.006;9.292;2024-02-23T10:29:17;3.40;;;0.70;;
50932;SDS011;36921;49.006;9.292;2024-02-23T10:31:42;2.40;;;0.40;;
50932;SDS011;36921;49.006;9.292;2024-02-23T10:34:12;2.58;;;0.40;;
50932;SDS011;36921;49.006;9.292;2024-02-23T10:36:43;2.05;;;0.40;;
50932;SDS011;36921;49.006;9.292;2024-02-23T10:39:10;4.32;;;0.73;;
50932;SDS011;36921;49.006;9.292;2024-02-23T10:41:36;3.97;;;0.40;;
50932;SDS011;36921;49.006;9.292;2024-02-23T10:44:04;4.03;;;0.82;;
50932;SDS011;36921;49.006;9.292;2024-02-23T10:46:33;5.93;;;0.63;;
50932;SDS011;36921;49.006;9.292;2024-02-23T10:48:59;4.95;;;0.57;;
50932;SDS011;36921;49.006;9.292;2024-02-23T10:51:26;2.63;;;0.70;;
50932;SDS011;36921;49.006;9.292;2024-02-23T10:53:53;4.45;;;0.52;;
50932;SDS011;36921;49.006;9.292;2024-02-23T10:56:19;4.05;;;0.80;;
50932;SDS011;36921;49.006;9.292;2024-02-23T10:58:47;3.13;;;0.60;;
50932;SDS011;36921;49.006;9.292;2024-02-23T11:01:12;4.97;;;0.60;;
50932;SDS011;36921;49.006;9.292;2024-02-23T11:03:40;2.03;;;0.60;;
50932;SDS011;36921;49.006;9.292;2024-02-23T11:06:08;1.50;;;0.40;;
50932;SDS011;36921;49.006;9.292;2024-02-23T11:08:33;3.50;;;1.00;;
50932;SDS011;36921;49.006;9.292;2024-02-23T11:11:07;9.93;;;1.15;;
50932;SDS011;36921;49.006;9.292;2024-02-23T11:13:38;4.65;;;1.13;;
50932;SDS011;36921;49.006;9.292;2024-02-23T11:16:12;4.57;;;1.00;;
50932;SDS011;36921;49.006;9.292;2024-02-23T11:18:48;3.65;;;1.30;;
50932;SDS011;36921;49.006;9.292;2024-02-23T11:21:13;7.28;;;0.80;;
50932;SDS011;36921;49.006;9.292;2024-02-23T11:23:42;4.43;;;1.48;;
50932;SDS011;36921;49.006;9.292;2024-02-23T11:26:12;5.75;;;0.90;;
50932;SDS011;36921;49.006;9.292;2024-02-23T11:28:48;3.63;;;0.70;;
50932;SDS011;36921;49.006;9.292;2024-02-23T11:31:19;3.25;;;0.77;;
50932;SDS011;36921;49.006;9.292;2024-02-23T11:33:52;4.53;;;0.60;;
50932;SDS011;36921;49.006;9.292;2024-02-23T11:36:32;2.70;;;0.65;;
50932;SDS011;36921;49.006;9.292;2024-02-23T11:38:58;3.95;;;0.98;;
50932;SDS011;36921;49.006;9.292;2024-02-23T11:41:25;3.90;;;0.80;;
50932;SDS011;36921;49.006;9.292;2024-02-23T11:43:52;3.05;;;0.70;;
50932;SDS011;36921;49.006;9.292;2024-02-23T11:46:21;5.97;;;0.70;;
50932;SDS011;36921;49.006;9.292;2024-02-23T11:48:47;3.38;;;0.90;;
50932;SDS011;36921;49.006;9.292;2024-02-23T11:51:18;5.13;;;0.60;;
50932;SDS011;36921;49.006;9.292;2024-02-23T11:53:44;5.70;;;1.10;;
50932;SDS011;36921;49.006;9.292;2024-02-23T11:56:10;5.53;;;1.40;;
50932;SDS011;36921;49.006;9.292;2024-02-23T11:58:36;4.95;;;1.00;;
50932;SDS011;36921;49.006;9.292;2024-02-23T12:01:03;3.35;;;0.40;;
50932;SDS011;36921;49.006;9.292;2024-02-23T12:03:29;4.75;;;1.10;;
50932;SDS011;36921;49.006;9.292;2024-02-23T12:05:58;7.75;;;1.00;;
50932;SDS011;36921;49.006;9.292;2024-02-23T12:08:25;2.72;;;1.00;;
50932;SDS011;36921;49.006;9.292;2024-02-23T12:10:54;2.95;;;0.80;;
50932;SDS011;36921;49.006;9.292;2024-02-23T12:13:20;3.25;;;0.85;;
50932;SDS011;36921;49.006;9.292;2024-02-23T12:15:47;3.20;;;0.45;;
50932;SDS011;36921;49.006;9.292;2024-02-23T12:18:13;5.15;;;0.93;;
50932;SDS011;36921;49.006;9.292;2024-02-23T12:20:39;5.05;;;0.63;;
50932;SDS011;36921;49.006;9.292;2024-02-23T12:23:05;6.95;;;0.75;;
50932;SDS011;36921;49.006;9.292;2024-02-23T12:25:33;5.05;;;0.60;;
50932;SDS011;36921;49.006;9.292;2024-02-23T12:27:58;5.20;;;0.70;;
50932;SDS011;36921;49.006;9.292;2024-02-23T12:30:25;3.38;;;0.73;;
50932;SDS011;36921;49.006;9.292;2024-02-23T12:33:02;3.80;;;0.70;;
50932;SDS011;36921;49.006;9.292;2024-02-23T12:35:35;5.03;;;0.80;;
50932;SDS011;36921;49.006;9.292;2024-02-23T12:38:01;3.97;;;0.60;;
50932;SDS011;36921;49.006;9.292;2024-02-23T12:40:26;4.75;;;0.90;;
50932;SDS011;36921;49.006;9.292;2024-02-23T12:42:53;3.63;;;0.70;;
50932;SDS011;36921;49.006;9.292;2024-02-23T12:45:18;6.13;;;0.90;;
50932;SDS011;36921;49.006;9.292;2024-02-23T12:47:44;5.70;;;0.88;;
50932;SDS011;36921;49.006;9.292;2024-02-23T12:50:09;5.93;;;0.82;;
50932;SDS011;36921;49.006;9.292;2024-02-23T12:52:36;6.25;;;1.77;;
50932;SDS011;36921;49.006;9.292;2024-02-23T12:55:01;6.63;;;1.33;;
50932;SDS011;36921;49.006;9.292;2024-02-23T12:57:27;15.38;;;2.35;;
50932;SDS011;36921;49.006;9.292;2024-02-23T12:59:52;5.50;;;1.50;;
50932;SDS011;36921;49.006;9.292;2024-02-23T13:02:18;4.45;;;1.02;;
50932;SDS011;36921;49.006;9.292;2024-02-23T13:04:44;4.32;;;0.75;;
50932;SDS011;36921;49.006;9.292;2024-02-23T13:07:15;3.35;;;0.80;;
50932;SDS011;36921;49.006;9.292;2024-02-23T13:09:43;6.40;;;1.40;;
50932;SDS011;36921;49.006;9.292;2024-02-23T13:12:09;4.10;;;0.80;;
50932;SDS011;36921;49.006;9.292;2024-02-23T13:14:34;4.95;;;0.70;;
50932;SDS011;36921;49.006;9.292;2024-02-23T13:17:00;2.63;;;0.52;;
50932;SDS011;36921;49.006;9.292;2024-02-23T13:19:25;4.75;;;0.80;;
50932;SDS011;36921;49.006;9.292;2024-02-23T13:21:51;5.75;;;0.82;;
50932;SDS011;36921;49.006;9.292;2024-02-23T13:24:17;2.38;;;0.73;;
50932;SDS011;36921;49.006;9.292;2024-02-23T13:26:42;4.32;;;0.77;;
50932;SDS011;36921;49.006;9.292;2024-02-23T13:29:08;3.35;;;0.57;;
50932;SDS011;36921;49.006;9.292;2024-02-23T13:31:33;1.42;;;0.82;;
50932;SDS011;36921;49.006;9.292;2024-02-23T13:33:59;3.72;;;0.50;;
50932;SDS011;36921;49.006;9.292;2024-02-23T13:36:24;9.63;;;0.90;;
50932;SDS011;36921;49.006;9.292;2024-02-23T13:38:50;2.65;;;0.60;;
50932;SDS011;36921;49.006;9.292;2024-02-23T13:41:16;4.70;;;0.90;;
50932;SDS011;36921;49.006;9.292;2024-02-23T13:43:42;3.15;;;0.95;;
50932;SDS011;36921;49.006;9.292;2024-02-23T13:46:07;5.90;;;0.90;;
50932;SDS011;36921;49.006;9.292;2024-02-23T13:48:32;6.00;;;0.80;;
50932;SDS011;36921;49.006;9.292;2024-02-23T13:50:58;2.67;;;0.70;;
50932;SDS011;36921;49.006;9.292;2024-02-23T13:53:28;9.05;;;1.00;;
50932;SDS011;36921;49.006;9.292;2024-02-23T13:55:57;5.90;;;0.65;;
50932;SDS011;36921;49.006;9.292;2024-02-23T13:58:23;5.72;;;0.70;;
50932;SDS011;36921;49.006;9.292;2024-02-23T14:00:49;3.80;;;0.65;;
50932;SDS011;36921;49.006;9.292;2024-02-23T14:03:16;5.40;;;0.77;;
50932;SDS011;36921;49.006;9.292;2024-02-23T14:05:46;4.28;;;0.90;;
50932;SDS011;36921;49.006;9.292;2024-02-23T14:08:13;7.00;;;0.98;;
50932;SDS011;36921;49.006;9.292;2024-02-23T14:10:38;3.90;;;1.38;;
50932;SDS011;36921;49.006;9.292;2024-02-23T14:13:05;8.93;;;1.23;;
50932;SDS011;36921;49.006;9.292;2024-02-23T14:15:31;4.40;;;0.95;;
50932;SDS011;36921;49.006;9.292;2024-02-23T14:17:57;2.65;;;0.68;;
50932;SDS011;36921;49.006;9.292;2024-02-23T14:20:22;4.55;;;0.45;;
50932;SDS011;36921;49.006;9.292;2024-02-23T14:22:48;3.30;;;0.75;;
50932;SDS011;36921;49.006;9.292;2024-02-23T14:25:15;15.00;;;1.83;;
50932;SDS011;36921;49.006;9.292;2024-02-23T14:27:40;5.25;;;0.70;;
50932;SDS011;36921;49.006;9.292;2024-02-23T14:30:06;4.18;;;0.98;;
50932;SDS011;36921;49.006;9.292;2024-02-23T14:32:33;4.65;;;0.70;;
50932;SDS011;36921;49.006;9.292;2024-02-23T14:35:01;3.58;;;0.68;;
50932;SDS011;36921;49.006;9.292;2024-02-23T14:37:28;2.67;;;0.80;;
50932;SDS011;36921;49.006;9.292;2024-02-23T14:39:53;5.82;;;1.23;;
50932;SDS011;36921;49.006;9.292;2024-02-23T14:42:20;4.43;;;0.70;;
50932;SDS011;36921;49.006;9.292;2024-02-23T14:44:45;2.17;;;0.50;;
50932;SDS011;36921;49.006;9.292;2024-02-23T14:47:11;4.60;;;0.75;;
50932;SDS011;36921;49.006;9.292;2024-02-23T14:49:37;4.57;;;0.95;;
50932;SDS011;36921;49.006;9.292;2024-02-23T14:52:02;4.20;;;0.50;;
50932;SDS011;36921;49.006;9.292;2024-02-23T14:54:28;5.25;;;0.60;;
50932;SDS011;36921;49.006;9.292;2024-02-23T14:56:54;5.00;;;0.80;;
50932;SDS011;36921;49.006;9.292;2024-02-23T14:59:19;3.35;;;0.70;;
50932;SDS011;36921;49.006;9.292;2024-02-23T15:01:45;3.63;;;0.95;;